Weather at Stryn Heliport

Public forecast

Using degrees Celsius for public forecast. Weather courtesy of forecast.io.

Closest aviation weather report (METAR) to Stryn Heliport

Closest report is Sandane Airport, Anda, 15.1 nm (28.0 km) WSW.

2024/05/20 06:20 (retrieved 38 minutes ago)

ENSD 200620Z AUTO VRB02KT 9999 NCD 10/06 Q1019 RMK WIND RWY 26 06003KT WIND 1140FT 07004KT

Closest aviation forecast (TAF) to Stryn Heliport

Closest forecast is Bergen Airport, Flesland, 104.6 nm (193.7 km) SSW.

2024/05/20 06:36 (retrieved 22 minutes ago)

TAF ENBR 200500Z 2006/2106 34010KT CAVOK BECMG 2009/2012 20005KT